createdAt,value
2023-03-14T00:01:49.605Z,72.18
2023-03-14T00:05:06.148Z,71.88
2023-03-14T00:08:01.347Z,71.96
2023-03-14T00:10:30.879Z,71.88
2023-03-14T00:12:58.123Z,72.21
2023-03-14T00:15:53.080Z,72.41
2023-03-14T00:18:46.849Z,72.54
2023-03-14T00:21:54.501Z,72.66
2023-03-14T00:24:23.822Z,72.63
2023-03-14T00:27:00.274Z,72.61
2023-03-14T00:29:27.609Z,72.48
2023-03-14T00:31:54.098Z,72.46
2023-03-14T00:34:44.298Z,72.80
2023-03-14T00:37:11.571Z,72.97
2023-03-14T00:39:44.019Z,72.76
2023-03-14T00:42:51.272Z,72.93
2023-03-14T00:45:58.084Z,73.12
2023-03-14T00:48:26.287Z,73.00
2023-03-14T00:50:54.651Z,73.00
2023-03-14T00:53:22.649Z,73.15
2023-03-14T00:55:52.982Z,73.21
2023-03-14T00:58:19.898Z,73.40
2023-03-14T01:01:07.016Z,73.38
2023-03-14T01:03:33.746Z,73.31
2023-03-14T01:06:35.860Z,73.53
2023-03-14T01:09:52.556Z,73.40
2023-03-14T01:13:23.459Z,73.48
2023-03-14T01:15:50.657Z,73.43
2023-03-14T01:18:40.554Z,73.62
2023-03-14T01:21:39.335Z,73.41
2023-03-14T01:24:12.869Z,73.37
2023-03-14T01:26:39.760Z,73.11
2023-03-14T01:29:06.404Z,73.28
2023-03-14T01:31:32.918Z,73.32
2023-03-14T01:33:59.680Z,73.48
2023-03-14T01:36:26.195Z,73.60
2023-03-14T01:38:53.308Z,73.68
2023-03-14T01:41:23.300Z,73.58
2023-03-14T01:43:50.948Z,74.01
2023-03-14T01:46:43.491Z,73.80
2023-03-14T01:49:15.243Z,74.18
2023-03-14T01:51:57.437Z,74.40
2023-03-14T01:54:35.171Z,74.47
2023-03-14T01:57:13.222Z,74.48
2023-03-14T01:59:41.766Z,74.57
2023-03-14T02:05:12.463Z,74.65
2023-03-14T02:07:50.368Z,74.92
2023-03-14T02:10:20.831Z,74.83
2023-03-14T02:12:51.041Z,74.96
2023-03-14T02:15:20.072Z,75.14
2023-03-14T02:17:47.086Z,75.36
2023-03-14T02:20:19.671Z,75.63
2023-03-14T02:22:48.257Z,75.61
2023-03-14T02:25:30.009Z,75.98
2023-03-14T02:27:56.753Z,75.97
2023-03-14T02:30:26.831Z,76.10
2023-03-14T02:33:02.297Z,76.73
2023-03-14T02:35:34.911Z,76.46
2023-03-14T02:38:27.675Z,76.83
2023-03-14T02:40:54.180Z,76.45
2023-03-14T02:43:20.968Z,76.36
2023-03-14T02:45:50.625Z,76.52
2023-03-14T02:48:22.961Z,76.52
2023-03-14T02:50:53.552Z,76.17
2023-03-14T02:53:28.862Z,76.33
2023-03-14T02:55:57.224Z,76.27
2023-03-14T02:58:24.433Z,76.94
2023-03-14T03:00:51.034Z,76.69
2023-03-14T03:03:18.045Z,76.75
2023-03-14T03:05:48.280Z,76.66
2023-03-14T03:08:14.776Z,76.61
2023-03-14T03:10:41.904Z,76.53
2023-03-14T03:13:09.735Z,76.76
2023-03-14T03:15:36.298Z,76.55
2023-03-14T03:18:03.752Z,76.56
2023-03-14T03:20:30.587Z,76.63
2023-03-14T03:22:57.224Z,76.21
2023-03-14T03:25:24.850Z,76.59
2023-03-14T03:27:51.593Z,76.68
2023-03-14T03:30:18.603Z,76.56
2023-03-14T03:32:45.695Z,76.72
2023-03-14T03:35:13.049Z,76.28
2023-03-14T03:37:39.853Z,76.32
2023-03-14T03:40:08.435Z,76.22
2023-03-14T03:42:36.754Z,76.28
2023-03-14T03:45:05.020Z,76.17
2023-03-14T03:47:32.719Z,76.46
2023-03-14T03:49:59.338Z,76.36
2023-03-14T03:52:25.799Z,76.30
2023-03-14T03:54:54.070Z,76.27
2023-03-14T03:57:21.656Z,75.94
2023-03-14T03:59:49.057Z,75.87
2023-03-14T04:02:17.165Z,75.93
2023-03-14T04:04:48.208Z,75.94
2023-03-14T04:07:15.978Z,76.03
2023-03-14T04:09:45.386Z,75.86
2023-03-14T04:12:13.886Z,76.17
2023-03-14T04:14:41.711Z,76.15
2023-03-14T04:17:09.589Z,76.33
2023-03-14T04:19:36.482Z,76.51
2023-03-14T04:22:05.289Z,76.38
2023-03-14T04:24:33.857Z,76.37
2023-03-14T04:27:02.651Z,76.17
2023-03-14T04:29:29.258Z,76.52
2023-03-14T04:31:56.027Z,76.10
2023-03-14T04:34:22.509Z,76.25
2023-03-14T04:36:49.263Z,76.22
2023-03-14T04:39:16.012Z,76.28
2023-03-14T04:41:43.197Z,76.14
2023-03-14T04:44:09.787Z,76.38
2023-03-14T04:46:37.395Z,76.75
2023-03-14T04:49:23.921Z,76.70
2023-03-14T04:51:52.744Z,76.58
2023-03-14T04:54:20.107Z,76.72
2023-03-14T04:56:46.865Z,76.86
2023-03-14T04:59:13.521Z,76.74
2023-03-14T05:01:43.253Z,76.79
2023-03-14T05:04:09.895Z,76.83
2023-03-14T05:06:36.516Z,76.53
2023-03-14T05:09:05.615Z,76.87
2023-03-14T05:11:33.226Z,76.74
2023-03-14T05:14:00.782Z,76.42
2023-03-14T05:16:28.514Z,76.95
2023-03-14T05:18:54.966Z,77.41
2023-03-14T05:21:22.881Z,77.38
2023-03-14T05:23:49.612Z,77.55
2023-03-14T05:26:17.579Z,77.54
2023-03-14T05:28:45.560Z,77.60
2023-03-14T05:31:15.457Z,77.49
2023-03-14T05:33:42.073Z,77.36
2023-03-14T05:36:10.443Z,77.48
2023-03-14T05:38:36.827Z,77.42
2023-03-14T05:41:03.454Z,77.51
2023-03-14T05:43:33.134Z,77.80
2023-03-14T05:46:00.117Z,77.86
2023-03-14T05:48:29.472Z,77.36
2023-03-14T05:51:00.309Z,77.50
2023-03-14T05:53:27.147Z,77.67
2023-03-14T05:56:01.508Z,77.77
2023-03-14T05:58:32.271Z,77.86
2023-03-14T06:01:27.423Z,78.11
2023-03-14T06:04:14.395Z,78.09
2023-03-14T06:06:52.798Z,77.85
2023-03-14T06:09:21.205Z,77.99
2023-03-14T06:11:47.656Z,77.86
2023-03-14T06:14:14.134Z,78.08
2023-03-14T06:16:40.890Z,78.34
2023-03-14T06:19:07.448Z,78.22
2023-03-14T06:21:34.520Z,77.89
2023-03-14T06:24:01.205Z,78.19
2023-03-14T06:26:27.633Z,78.45
2023-03-14T06:28:54.825Z,77.97
2023-03-14T06:31:21.616Z,78.30
2023-03-14T06:33:48.178Z,78.47
2023-03-14T06:36:14.654Z,78.51
2023-03-14T06:38:41.632Z,78.36
2023-03-14T06:41:09.090Z,78.75
2023-03-14T06:44:35.672Z,78.65
2023-03-14T06:47:03.973Z,78.53
2023-03-14T06:49:35.614Z,78.65
2023-03-14T06:52:06.693Z,78.75
2023-03-14T06:54:59.447Z,78.87
2023-03-14T06:57:35.675Z,78.62
2023-03-14T07:00:28.320Z,78.79
2023-03-14T07:03:17.265Z,78.72
2023-03-14T07:06:05.341Z,78.67
2023-03-14T07:08:52.302Z,78.81
2023-03-14T07:12:18.593Z,78.63
2023-03-14T07:15:46.790Z,78.32
2023-03-14T07:18:57.720Z,78.37
2023-03-14T07:22:14.109Z,78.43
2023-03-14T07:25:19.633Z,78.04
2023-03-14T07:28:29.151Z,77.73
2023-03-14T07:31:15.426Z,78.01
2023-03-14T07:34:23.162Z,77.80
2023-03-14T07:37:10.885Z,77.86
2023-03-14T07:39:59.262Z,77.98
2023-03-14T07:43:05.112Z,77.95
2023-03-14T07:45:43.232Z,78.02
2023-03-14T07:48:38.904Z,77.69
2023-03-14T07:51:55.600Z,77.98
2023-03-14T07:55:24.281Z,77.86
2023-03-14T07:59:11.985Z,78.24
2023-03-14T08:02:58.179Z,77.67
2023-03-14T08:06:27.737Z,77.70
2023-03-14T08:14:13.532Z,76.39
2023-03-14T08:18:04.119Z,75.16
2023-03-14T08:21:53.165Z,74.84
2023-03-14T08:25:43.178Z,73.36
2023-03-14T08:29:31.366Z,72.18
2023-03-14T08:33:18.306Z,71.53
2023-03-14T08:37:10.910Z,70.30
2023-03-14T08:40:54.525Z,69.98
2023-03-14T08:44:44.542Z,67.93
2023-03-14T08:48:12.781Z,67.24
2023-03-14T08:51:48.233Z,64.48
2023-03-14T08:55:42.417Z,63.23
2023-03-14T08:59:10.571Z,62.96
2023-03-14T09:01:59.108Z,62.09
2023-03-14T09:04:50.157Z,61.77
2023-03-14T09:08:07.162Z,60.08
2023-03-14T09:11:33.904Z,61.80
2023-03-14T09:14:00.963Z,59.64
2023-03-14T09:16:35.516Z,58.74
2023-03-14T09:19:12.540Z,59.37
2023-03-14T09:21:39.826Z,59.72
2023-03-14T09:24:08.274Z,58.84
2023-03-14T09:26:46.684Z,58.72
2023-03-14T09:29:16.642Z,58.45
2023-03-14T09:31:49.744Z,58.60
2023-03-14T09:34:16.192Z,57.35
2023-03-14T09:36:48.194Z,57.47
2023-03-14T09:39:19.362Z,58.26
2023-03-14T09:42:35.038Z,57.59
2023-03-14T09:46:24.461Z,57.93
2023-03-14T09:50:13.867Z,58.17
2023-03-14T09:53:47.802Z,57.39
2023-03-14T09:57:00.991Z,57.09
2023-03-14T10:00:21.886Z,57.65
2023-03-14T10:03:47.824Z,57.80
2023-03-14T10:07:15.109Z,57.42
2023-03-14T10:10:51.992Z,57.58
2023-03-14T10:14:39.741Z,57.13
2023-03-14T10:18:28.710Z,56.51
2023-03-14T10:22:03.183Z,56.15
2023-03-14T10:25:32.884Z,55.39
2023-03-14T10:28:52.718Z,55.59
2023-03-14T10:32:15.897Z,55.59
2023-03-14T10:35:28.258Z,55.52
2023-03-14T10:39:14.978Z,56.28
2023-03-14T10:43:11.062Z,56.35
2023-03-14T10:46:59.341Z,56.64
2023-03-14T10:50:45.246Z,56.52
2023-03-14T10:54:29.751Z,57.18
2023-03-14T10:58:00.738Z,56.46
2023-03-14T11:01:46.377Z,56.56
2023-03-14T11:05:22.954Z,56.70
2023-03-14T11:09:13.135Z,56.82
2023-03-14T11:13:06.079Z,56.91
2023-03-14T11:16:48.121Z,57.13
2023-03-14T11:20:44.408Z,57.21
2023-03-14T11:24:49.525Z,57.50
2023-03-14T11:32:40.198Z,57.79
2023-03-14T11:36:46.489Z,58.32
2023-03-14T11:40:37.835Z,58.24
2023-03-14T11:44:31.037Z,58.67
2023-03-14T11:48:30.728Z,58.53
2023-03-14T11:52:17.035Z,58.50
2023-03-14T11:56:12.692Z,58.93
2023-03-14T12:00:05.805Z,58.77
2023-03-14T12:04:01.424Z,58.81
2023-03-14T12:07:50.138Z,58.98
2023-03-14T12:11:41.359Z,58.99
2023-03-14T12:15:28.907Z,59.06
2023-03-14T12:19:15.719Z,59.55
2023-03-14T12:23:08.804Z,59.98
2023-03-14T12:30:38.628Z,60.49
2023-03-14T12:34:30.224Z,60.73
2023-03-14T12:38:26.950Z,61.10
2023-03-14T12:42:24.025Z,60.81
2023-03-14T12:46:29.184Z,60.85
2023-03-14T12:50:18.932Z,61.31
2023-03-14T12:54:21.393Z,61.08
2023-03-14T12:57:57.717Z,61.17
2023-03-14T13:01:44.622Z,61.04
2023-03-14T13:09:19.717Z,61.66
2023-03-14T13:12:53.113Z,61.41
2023-03-14T13:20:42.411Z,61.68
2023-03-14T13:24:19.968Z,62.01
2023-03-14T13:27:35.292Z,62.22
2023-03-14T13:31:08.253Z,62.37
2023-03-14T13:34:17.671Z,62.17
2023-03-14T13:38:11.688Z,62.65
2023-03-14T13:41:53.056Z,62.60
2023-03-14T13:45:42.446Z,62.58
2023-03-14T13:49:33.611Z,62.64
2023-03-14T13:53:39.919Z,62.79
2023-03-14T13:57:29.470Z,62.83
2023-03-14T14:01:20.882Z,63.15
2023-03-14T14:05:11.355Z,63.17
2023-03-14T14:09:01.038Z,63.18
2023-03-14T14:12:32.657Z,63.30
2023-03-14T14:16:20.690Z,63.81
2023-03-14T14:20:09.573Z,63.78
2023-03-14T14:23:57.430Z,64.35
2023-03-14T14:27:57.655Z,64.77
2023-03-14T14:31:34.851Z,64.86
2023-03-14T14:35:05.603Z,65.18
2023-03-14T14:37:54.206Z,65.52
2023-03-14T14:40:28.376Z,65.54
2023-03-14T14:43:05.255Z,65.60
2023-03-14T14:45:38.983Z,66.01
2023-03-14T14:48:16.351Z,65.99
2023-03-14T14:50:46.950Z,66.18
2023-03-14T14:53:49.659Z,66.16
2023-03-14T14:56:31.616Z,66.54
2023-03-14T14:59:22.972Z,66.49
2023-03-14T15:01:52.739Z,66.67
2023-03-14T15:05:02.317Z,66.71
2023-03-14T15:08:09.949Z,67.02
2023-03-14T15:11:37.009Z,67.11
2023-03-14T15:15:24.209Z,67.19
2023-03-14T15:18:54.432Z,67.19
2023-03-14T15:22:22.906Z,67.70
2023-03-14T15:25:55.802Z,67.86
2023-03-14T15:29:40.499Z,67.70
2023-03-14T15:33:07.615Z,67.84
2023-03-14T15:36:35.019Z,67.90
2023-03-14T15:40:02.995Z,68.03
2023-03-14T15:43:49.950Z,68.02
2023-03-14T15:47:36.784Z,68.26
2023-03-14T15:51:23.987Z,68.17
2023-03-14T15:54:51.018Z,68.37
2023-03-14T15:57:39.676Z,68.44
2023-03-14T16:00:13.508Z,68.57
2023-03-14T16:02:43.119Z,68.55
2023-03-14T16:05:11.825Z,68.74
2023-03-14T16:08:01.670Z,68.97
2023-03-14T16:10:51.393Z,68.99
2023-03-14T16:13:49.859Z,68.90
2023-03-14T16:16:41.845Z,68.89
2023-03-14T16:19:12.761Z,69.17
2023-03-14T16:21:52.267Z,69.32
2023-03-14T16:24:21.772Z,69.63
2023-03-14T16:27:36.540Z,69.65
2023-03-14T16:30:15.373Z,69.74
2023-03-14T16:32:43.123Z,69.86
2023-03-14T16:35:10.894Z,70.00
2023-03-14T16:37:53.011Z,70.15
2023-03-14T16:40:25.795Z,70.21
2023-03-14T16:43:41.903Z,70.47
2023-03-14T16:46:50.053Z,70.48
2023-03-14T16:49:59.214Z,70.76
2023-03-14T16:52:27.496Z,71.08
2023-03-14T16:54:56.597Z,70.68
2023-03-14T16:57:45.800Z,71.10
2023-03-14T17:00:16.652Z,71.21
2023-03-14T17:02:44.618Z,71.09
2023-03-14T17:05:12.084Z,71.38
2023-03-14T17:07:41.110Z,71.49
2023-03-14T17:10:11.959Z,71.23
2023-03-14T17:12:39.711Z,71.37
2023-03-14T17:15:07.691Z,71.50
2023-03-14T17:17:35.752Z,71.45
2023-03-14T17:20:04.657Z,71.56
2023-03-14T17:22:32.976Z,71.63
2023-03-14T17:25:02.961Z,71.61
2023-03-14T17:27:31.312Z,71.62
2023-03-14T17:29:59.136Z,71.55
2023-03-14T17:32:29.112Z,71.88
2023-03-14T17:34:56.771Z,72.13
2023-03-14T17:37:26.012Z,72.03
2023-03-14T17:39:54.218Z,72.20
2023-03-14T17:42:23.828Z,72.16
2023-03-14T17:44:52.289Z,72.50
2023-03-14T17:47:20.481Z,72.49
2023-03-14T17:49:58.128Z,72.61
2023-03-14T17:52:29.040Z,72.58
2023-03-14T17:54:57.476Z,72.76
2023-03-14T17:57:25.920Z,72.98
2023-03-14T17:59:57.058Z,72.95
2023-03-14T18:02:26.077Z,72.79
2023-03-14T18:04:54.259Z,73.05
2023-03-14T18:07:22.913Z,73.17
2023-03-14T18:09:52.886Z,73.11
2023-03-14T18:12:23.930Z,73.14
2023-03-14T18:14:52.930Z,73.34
2023-03-14T18:17:24.966Z,73.50
2023-03-14T18:19:56.838Z,73.58
2023-03-14T18:22:26.871Z,73.66
2023-03-14T18:24:57.564Z,73.47
2023-03-14T18:27:33.200Z,73.73
2023-03-14T18:30:04.087Z,73.80
2023-03-14T18:32:32.874Z,73.69
2023-03-14T18:35:01.873Z,73.54
2023-03-14T18:37:30.536Z,74.07
2023-03-14T18:39:59.484Z,73.84
2023-03-14T18:42:28.234Z,74.04
2023-03-14T18:44:56.369Z,74.11
2023-03-14T18:47:27.174Z,74.22
2023-03-14T18:49:59.564Z,74.16
2023-03-14T18:52:50.747Z,74.20
2023-03-14T18:55:43.997Z,74.17
2023-03-14T18:58:38.583Z,74.26
2023-03-14T19:01:36.148Z,74.21
2023-03-14T19:04:36.179Z,74.76
2023-03-14T19:07:11.444Z,75.04
2023-03-14T19:09:42.902Z,75.20
2023-03-14T19:12:14.408Z,75.34
2023-03-14T19:14:47.905Z,75.56
2023-03-14T19:17:20.733Z,76.02
2023-03-14T19:20:12.004Z,76.42
2023-03-14T19:22:40.572Z,76.55
2023-03-14T19:25:12.600Z,76.59
2023-03-14T19:28:00.598Z,77.25
2023-03-14T19:30:31.338Z,77.00
2023-03-14T19:33:07.213Z,77.03
2023-03-14T19:35:38.073Z,76.84
2023-03-14T19:38:07.778Z,77.21
2023-03-14T19:40:43.672Z,76.87
2023-03-14T19:43:17.207Z,76.90
2023-03-14T19:45:50.768Z,76.99
2023-03-14T19:48:22.657Z,77.08
2023-03-14T19:50:56.475Z,77.01
2023-03-14T19:54:02.680Z,76.98
2023-03-14T19:57:06.820Z,77.07
2023-03-14T19:59:47.936Z,76.84
2023-03-14T20:02:25.014Z,76.83
2023-03-14T20:04:59.690Z,76.82
2023-03-14T20:07:51.176Z,77.04
2023-03-14T20:10:23.934Z,76.86
2023-03-14T20:12:55.089Z,77.09
2023-03-14T20:15:23.492Z,76.95
2023-03-14T20:17:57.256Z,77.03
2023-03-14T20:20:26.739Z,77.10
2023-03-14T20:22:55.436Z,77.13
2023-03-14T20:25:23.495Z,77.06
2023-03-14T20:27:59.297Z,77.14
2023-03-14T20:30:28.378Z,76.90
2023-03-14T20:32:59.361Z,76.94
2023-03-14T20:35:27.897Z,76.95
2023-03-14T20:38:01.887Z,76.93
2023-03-14T20:40:30.524Z,76.97
2023-03-14T20:42:59.735Z,77.00
2023-03-14T20:45:28.831Z,76.74
2023-03-14T20:47:59.938Z,76.57
2023-03-14T20:50:28.807Z,76.47
2023-03-14T20:52:57.801Z,76.52
2023-03-14T20:55:27.706Z,76.44
2023-03-14T20:57:57.941Z,76.30
2023-03-14T21:00:26.624Z,76.18
2023-03-14T21:02:56.687Z,76.21
2023-03-14T21:05:25.890Z,76.07
2023-03-14T21:07:57.124Z,75.82
2023-03-14T21:10:25.643Z,75.89
2023-03-14T21:12:53.647Z,75.70
2023-03-14T21:15:22.902Z,75.81
2023-03-14T21:17:54.376Z,75.65
2023-03-14T21:20:28.537Z,75.27
2023-03-14T21:22:58.264Z,75.24
2023-03-14T21:25:27.038Z,75.12
2023-03-14T21:27:56.448Z,75.21
2023-03-14T21:30:28.451Z,75.01
2023-03-14T21:32:58.149Z,75.01
2023-03-14T21:35:29.620Z,74.96
2023-03-14T21:37:57.712Z,74.78
2023-03-14T21:40:26.310Z,74.73
2023-03-14T21:43:19.930Z,74.56
2023-03-14T21:46:27.649Z,74.51
2023-03-14T21:49:16.013Z,74.51
2023-03-14T21:51:50.832Z,74.31
2023-03-14T21:54:21.453Z,74.21
2023-03-14T21:57:10.002Z,74.28
2023-03-14T21:59:47.276Z,74.17
2023-03-14T22:02:24.410Z,74.04
2023-03-14T22:05:13.712Z,73.97
2023-03-14T22:07:44.527Z,73.78
2023-03-14T22:10:13.477Z,73.84
2023-03-14T22:12:42.410Z,73.80
2023-03-14T22:15:15.418Z,73.90
2023-03-14T22:17:49.263Z,73.78
2023-03-14T22:20:16.992Z,73.61
2023-03-14T22:22:47.339Z,73.59
2023-03-14T22:25:17.253Z,73.49
2023-03-14T22:27:45.736Z,73.67
2023-03-14T22:30:13.554Z,73.68
2023-03-14T22:32:44.038Z,73.44
2023-03-14T22:35:11.451Z,73.63
2023-03-14T22:37:40.964Z,73.54
2023-03-14T22:40:10.772Z,73.57
2023-03-14T22:42:38.212Z,73.56
2023-03-14T22:45:26.323Z,73.39
2023-03-14T22:47:56.839Z,73.56
2023-03-14T22:50:24.355Z,73.71
2023-03-14T22:53:13.669Z,73.49
2023-03-14T22:55:55.779Z,73.50
2023-03-14T22:58:37.776Z,73.50
2023-03-14T23:01:06.672Z,73.36
2023-03-14T23:03:36.621Z,73.01
2023-03-14T23:06:06.403Z,73.24
2023-03-14T23:08:35.815Z,73.01
2023-03-14T23:11:06.782Z,72.73
2023-03-14T23:13:36.653Z,72.58
2023-03-14T23:16:05.807Z,72.76
2023-03-14T23:18:38.963Z,72.57
2023-03-14T23:21:06.121Z,72.49
2023-03-14T23:23:35.500Z,72.25
2023-03-14T23:26:26.697Z,72.15
2023-03-14T23:28:55.262Z,71.84
2023-03-14T23:31:42.601Z,71.92
2023-03-14T23:34:11.371Z,71.87
2023-03-14T23:36:59.538Z,72.05
2023-03-14T23:40:09.589Z,72.14
2023-03-14T23:42:51.629Z,72.23
2023-03-14T23:45:21.293Z,72.43
2023-03-14T23:48:48.377Z,72.32
2023-03-14T23:51:33.367Z,72.43
2023-03-14T23:54:00.958Z,72.18
2023-03-14T23:56:29.559Z,72.55
2023-03-14T23:59:21.488Z,72.51
